sensor_id;sensor_type;location;lat;lon;timestamp;temperature;humidity
5850;DHT22;2951;47.712;9.400;2022-11-30T00:00:25;6.50;99.90
5850;DHT22;2951;47.712;9.400;2022-11-30T00:02:52;6.40;99.90
5850;DHT22;2951;47.712;9.400;2022-11-30T00:05:20;6.40;99.90
5850;DHT22;2951;47.712;9.400;2022-11-30T00:07:48;6.40;99.90
5850;DHT22;2951;47.712;9.400;2022-11-30T00:10:15;6.40;99.90
5850;DHT22;2951;47.712;9.400;2022-11-30T00:12:42;6.40;99.90
5850;DHT22;2951;47.712;9.400;2022-11-30T00:15:09;6.50;99.90
5850;DHT22;2951;47.712;9.400;2022-11-30T00:17:42;6.40;99.90
5850;DHT22;2951;47.712;9.400;2022-11-30T00:20:08;6.40;99.90
5850;DHT22;2951;47.712;9.400;2022-11-30T00:22:35;6.40;99.90
5850;DHT22;2951;47.712;9.400;2022-11-30T00:25:02;6.40;99.90
5850;DHT22;2951;47.712;9.400;2022-11-30T00:27:30;6.40;99.90
5850;DHT22;2951;47.712;9.400;2022-11-30T00:29:57;6.40;99.90
5850;DHT22;2951;47.712;9.400;2022-11-30T00:32:24;6.50;99.90
5850;DHT22;2951;47.712;9.400;2022-11-30T00:34:51;6.40;99.90
5850;DHT22;2951;47.712;9.400;2022-11-30T00:37:18;6.40;99.90
5850;DHT22;2951;47.712;9.400;2022-11-30T00:39:45;6.40;99.90
5850;DHT22;2951;47.712;9.400;2022-11-30T00:42:12;6.50;99.90
5850;DHT22;2951;47.712;9.400;2022-11-30T00:44:38;6.50;99.90
5850;DHT22;2951;47.712;9.400;2022-11-30T00:47:05;6.50;99.90
5850;DHT22;2951;47.712;9.400;2022-11-30T00:49:32;6.60;99.90
5850;DHT22;2951;47.712;9.400;2022-11-30T00:51:59;6.50;99.90
5850;DHT22;2951;47.712;9.400;2022-11-30T00:54:26;6.40;99.90
5850;DHT22;2951;47.712;9.400;2022-11-30T00:56:53;6.40;99.90
5850;DHT22;2951;47.712;9.400;2022-11-30T00:59:19;6.40;99.90
5850;DHT22;2951;47.712;9.400;2022-11-30T01:01:46;6.50;99.90
5850;DHT22;2951;47.712;9.400;2022-11-30T01:04:13;6.50;99.90
5850;DHT22;2951;47.712;9.400;2022-11-30T01:06:39;6.50;99.90
5850;DHT22;2951;47.712;9.400;2022-11-30T01:09:06;6.40;99.90
5850;DHT22;2951;47.712;9.400;2022-11-30T01:11:33;6.40;99.90
5850;DHT22;2951;47.712;9.400;2022-11-30T01:14:00;6.40;99.90
5850;DHT22;2951;47.712;9.400;2022-11-30T01:16:29;6.40;99.90
5850;DHT22;2951;47.712;9.400;2022-11-30T01:18:56;6.40;99.90
5850;DHT22;2951;47.712;9.400;2022-11-30T01:21:23;6.40;99.90
5850;DHT22;2951;47.712;9.400;2022-11-30T01:23:51;6.30;99.90
5850;DHT22;2951;47.712;9.400;2022-11-30T01:26:17;6.40;99.90
5850;DHT22;2951;47.712;9.400;2022-11-30T01:28:48;6.40;99.90
5850;DHT22;2951;47.712;9.400;2022-11-30T01:31:15;6.40;99.90
5850;DHT22;2951;47.712;9.400;2022-11-30T01:33:42;6.40;99.90
5850;DHT22;2951;47.712;9.400;2022-11-30T01:36:13;6.40;99.90
5850;DHT22;2951;47.712;9.400;2022-11-30T01:38:41;6.30;99.90
5850;DHT22;2951;47.712;9.400;2022-11-30T01:41:09;6.20;99.90
5850;DHT22;2951;47.712;9.400;2022-11-30T01:43:46;6.30;99.90
5850;DHT22;2951;47.712;9.400;2022-11-30T01:46:24;6.30;99.90
5850;DHT22;2951;47.712;9.400;2022-11-30T01:49:35;6.30;99.90
5850;DHT22;2951;47.712;9.400;2022-11-30T01:51:45;6.30;99.90
5850;DHT22;2951;47.712;9.400;2022-11-30T01:54:13;6.30;99.90
5850;DHT22;2951;47.712;9.400;2022-11-30T01:56:45;6.30;99.90
5850;DHT22;2951;47.712;9.400;2022-11-30T01:59:12;6.30;99.90
5850;DHT22;2951;47.712;9.400;2022-11-30T02:01:39;6.20;99.90
5850;DHT22;2951;47.712;9.400;2022-11-30T02:04:11;6.20;99.90
5850;DHT22;2951;47.712;9.400;2022-11-30T02:06:39;6.20;99.90
5850;DHT22;2951;47.712;9.400;2022-11-30T02:09:05;6.20;99.90
5850;DHT22;2951;47.712;9.400;2022-11-30T02:11:33;6.20;99.90
5850;DHT22;2951;47.712;9.400;2022-11-30T02:16:51;6.10;99.90
5850;DHT22;2951;47.712;9.400;2022-11-30T02:22:08;6.10;99.90
5850;DHT22;2951;47.712;9.400;2022-11-30T02:27:14;6.10;99.90
5850;DHT22;2951;47.712;9.400;2022-11-30T02:30:17;6.10;99.90
5850;DHT22;2951;47.712;9.400;2022-11-30T02:32:44;6.10;99.90
5850;DHT22;2951;47.712;9.400;2022-11-30T02:35:13;6.10;99.90
5850;DHT22;2951;47.712;9.400;2022-11-30T02:37:41;6.10;99.90
5850;DHT22;2951;47.712;9.400;2022-11-30T02:40:09;6.10;99.90
5850;DHT22;2951;47.712;9.400;2022-11-30T02:42:36;6.10;99.90
5850;DHT22;2951;47.712;9.400;2022-11-30T02:45:02;6.10;99.90
5850;DHT22;2951;47.712;9.400;2022-11-30T02:47:35;6.10;99.90
5850;DHT22;2951;47.712;9.400;2022-11-30T02:50:16;6.10;99.90
5850;DHT22;2951;47.712;9.400;2022-11-30T02:52:44;6.00;99.90
5850;DHT22;2951;47.712;9.400;2022-11-30T02:55:14;6.10;99.90
5850;DHT22;2951;47.712;9.400;2022-11-30T02:57:40;6.00;99.90
5850;DHT22;2951;47.712;9.400;2022-11-30T03:00:07;6.00;99.90
5850;DHT22;2951;47.712;9.400;2022-11-30T03:02:36;6.00;99.90
5850;DHT22;2951;47.712;9.400;2022-11-30T03:05:03;6.00;99.90
5850;DHT22;2951;47.712;9.400;2022-11-30T03:07:30;5.90;99.90
5850;DHT22;2951;47.712;9.400;2022-11-30T03:09:57;5.90;99.90
5850;DHT22;2951;47.712;9.400;2022-11-30T03:12:26;5.90;99.90
5850;DHT22;2951;47.712;9.400;2022-11-30T03:14:52;6.00;99.90
5850;DHT22;2951;47.712;9.400;2022-11-30T03:17:19;5.90;99.90
5850;DHT22;2951;47.712;9.400;2022-11-30T03:19:46;5.90;99.90
5850;DHT22;2951;47.712;9.400;2022-11-30T03:22:12;5.90;99.90
5850;DHT22;2951;47.712;9.400;2022-11-30T03:24:39;5.90;99.90
5850;DHT22;2951;47.712;9.400;2022-11-30T03:27:06;5.90;99.90
5850;DHT22;2951;47.712;9.400;2022-11-30T03:29:32;5.90;99.90
5850;DHT22;2951;47.712;9.400;2022-11-30T03:31:59;5.90;99.90
5850;DHT22;2951;47.712;9.400;2022-11-30T03:34:25;5.90;99.90
5850;DHT22;2951;47.712;9.400;2022-11-30T03:36:54;5.90;99.90
5850;DHT22;2951;47.712;9.400;2022-11-30T03:39:20;5.80;99.90
5850;DHT22;2951;47.712;9.400;2022-11-30T03:41:47;5.90;99.90
5850;DHT22;2951;47.712;9.400;2022-11-30T03:44:13;5.90;99.90
5850;DHT22;2951;47.712;9.400;2022-11-30T03:46:40;5.80;99.90
5850;DHT22;2951;47.712;9.400;2022-11-30T03:49:07;5.90;99.90
5850;DHT22;2951;47.712;9.400;2022-11-30T03:51:33;5.80;99.90
5850;DHT22;2951;47.712;9.400;2022-11-30T03:54:00;5.90;99.90
5850;DHT22;2951;47.712;9.400;2022-11-30T03:56:27;5.80;99.90
5850;DHT22;2951;47.712;9.400;2022-11-30T03:58:54;5.80;99.90
5850;DHT22;2951;47.712;9.400;2022-11-30T04:01:21;5.80;99.90
5850;DHT22;2951;47.712;9.400;2022-11-30T04:03:49;5.80;99.90
5850;DHT22;2951;47.712;9.400;2022-11-30T04:06:16;5.80;99.90
5850;DHT22;2951;47.712;9.400;2022-11-30T04:08:43;5.80;99.90
5850;DHT22;2951;47.712;9.400;2022-11-30T04:11:10;5.80;99.90
5850;DHT22;2951;47.712;9.400;2022-11-30T04:13:37;5.80;99.90
5850;DHT22;2951;47.712;9.400;2022-11-30T04:16:04;5.80;99.90
5850;DHT22;2951;47.712;9.400;2022-11-30T04:18:32;5.80;99.90
5850;DHT22;2951;47.712;9.400;2022-11-30T04:20:59;5.70;99.90
5850;DHT22;2951;47.712;9.400;2022-11-30T04:23:30;5.70;99.90
5850;DHT22;2951;47.712;9.400;2022-11-30T04:25:57;5.70;99.90
5850;DHT22;2951;47.712;9.400;2022-11-30T04:28:26;5.70;99.90
5850;DHT22;2951;47.712;9.400;2022-11-30T04:30:53;5.70;99.90
5850;DHT22;2951;47.712;9.400;2022-11-30T04:33:20;5.60;99.90
5850;DHT22;2951;47.712;9.400;2022-11-30T04:35:50;5.70;99.90
5850;DHT22;2951;47.712;9.400;2022-11-30T04:38:18;5.60;99.90
5850;DHT22;2951;47.712;9.400;2022-11-30T04:40:45;5.60;99.90
5850;DHT22;2951;47.712;9.400;2022-11-30T04:43:11;5.50;99.90
5850;DHT22;2951;47.712;9.400;2022-11-30T04:45:38;5.50;99.90
5850;DHT22;2951;47.712;9.400;2022-11-30T04:48:05;5.50;99.90
5850;DHT22;2951;47.712;9.400;2022-11-30T04:50:32;5.50;99.90
5850;DHT22;2951;47.712;9.400;2022-11-30T04:52:59;5.50;99.90
5850;DHT22;2951;47.712;9.400;2022-11-30T04:55:26;5.50;99.90
5850;DHT22;2951;47.712;9.400;2022-11-30T04:57:52;5.50;99.90
5850;DHT22;2951;47.712;9.400;2022-11-30T05:00:19;5.50;99.90
5850;DHT22;2951;47.712;9.400;2022-11-30T05:02:46;5.60;99.90
5850;DHT22;2951;47.712;9.400;2022-11-30T05:05:18;5.50;99.90
5850;DHT22;2951;47.712;9.400;2022-11-30T05:07:47;5.50;99.90
5850;DHT22;2951;47.712;9.400;2022-11-30T05:10:14;5.40;99.90
5850;DHT22;2951;47.712;9.400;2022-11-30T05:12:41;5.40;99.90
5850;DHT22;2951;47.712;9.400;2022-11-30T05:15:07;5.40;99.90
5850;DHT22;2951;47.712;9.400;2022-11-30T05:17:34;5.40;99.90
5850;DHT22;2951;47.712;9.400;2022-11-30T05:20:01;5.40;99.90
5850;DHT22;2951;47.712;9.400;2022-11-30T05:22:27;5.30;99.90
5850;DHT22;2951;47.712;9.400;2022-11-30T05:24:54;5.30;99.90
5850;DHT22;2951;47.712;9.400;2022-11-30T05:27:21;5.30;99.90
5850;DHT22;2951;47.712;9.400;2022-11-30T05:29:48;5.20;99.90
5850;DHT22;2951;47.712;9.400;2022-11-30T05:32:14;5.20;99.90
5850;DHT22;2951;47.712;9.400;2022-11-30T05:34:41;5.10;99.90
5850;DHT22;2951;47.712;9.400;2022-11-30T05:37:16;5.10;99.90
5850;DHT22;2951;47.712;9.400;2022-11-30T05:39:42;5.10;99.90
5850;DHT22;2951;47.712;9.400;2022-11-30T05:42:09;5.00;99.90
5850;DHT22;2951;47.712;9.400;2022-11-30T05:44:36;5.00;99.90
5850;DHT22;2951;47.712;9.400;2022-11-30T05:47:02;5.00;99.90
5850;DHT22;2951;47.712;9.400;2022-11-30T05:49:29;4.90;99.90
5850;DHT22;2951;47.712;9.400;2022-11-30T05:51:56;4.90;99.90
5850;DHT22;2951;47.712;9.400;2022-11-30T05:54:22;4.90;99.90
5850;DHT22;2951;47.712;9.400;2022-11-30T05:56:49;4.90;99.90
5850;DHT22;2951;47.712;9.400;2022-11-30T05:59:20;4.80;99.90
5850;DHT22;2951;47.712;9.400;2022-11-30T06:01:46;4.80;99.90
5850;DHT22;2951;47.712;9.400;2022-11-30T06:04:13;4.80;99.90
5850;DHT22;2951;47.712;9.400;2022-11-30T06:06:40;4.80;99.90
5850;DHT22;2951;47.712;9.400;2022-11-30T06:09:06;4.80;99.90
5850;DHT22;2951;47.712;9.400;2022-11-30T06:11:34;4.80;99.90
5850;DHT22;2951;47.712;9.400;2022-11-30T06:14:00;4.80;99.90
5850;DHT22;2951;47.712;9.400;2022-11-30T06:16:27;4.80;99.90
5850;DHT22;2951;47.712;9.400;2022-11-30T06:18:54;4.80;99.90
5850;DHT22;2951;47.712;9.400;2022-11-30T06:21:20;4.80;99.90
5850;DHT22;2951;47.712;9.400;2022-11-30T06:23:50;4.90;99.90
5850;DHT22;2951;47.712;9.400;2022-11-30T06:26:17;4.90;99.90
5850;DHT22;2951;47.712;9.400;2022-11-30T06:28:43;4.80;99.90
5850;DHT22;2951;47.712;9.400;2022-11-30T06:31:13;4.80;99.90
5850;DHT22;2951;47.712;9.400;2022-11-30T06:33:40;4.80;99.90
5850;DHT22;2951;47.712;9.400;2022-11-30T06:36:07;4.80;99.90
5850;DHT22;2951;47.712;9.400;2022-11-30T06:38:34;4.70;99.90
5850;DHT22;2951;47.712;9.400;2022-11-30T06:41:01;4.70;99.90
5850;DHT22;2951;47.712;9.400;2022-11-30T06:43:31;4.60;99.90
5850;DHT22;2951;47.712;9.400;2022-11-30T06:45:57;4.60;99.90
5850;DHT22;2951;47.712;9.400;2022-11-30T06:48:24;4.60;99.90
5850;DHT22;2951;47.712;9.400;2022-11-30T06:50:50;4.60;99.90
5850;DHT22;2951;47.712;9.400;2022-11-30T06:53:17;4.60;99.90
5850;DHT22;2951;47.712;9.400;2022-11-30T06:55:44;4.50;99.90
5850;DHT22;2951;47.712;9.400;2022-11-30T06:58:10;4.50;99.90
5850;DHT22;2951;47.712;9.400;2022-11-30T07:00:37;4.50;99.90
5850;DHT22;2951;47.712;9.400;2022-11-30T07:03:04;4.50;99.90
5850;DHT22;2951;47.712;9.400;2022-11-30T07:05:37;4.50;99.90
5850;DHT22;2951;47.712;9.400;2022-11-30T07:08:05;4.50;99.90
5850;DHT22;2951;47.712;9.400;2022-11-30T07:10:32;4.50;99.90
5850;DHT22;2951;47.712;9.400;2022-11-30T07:12:58;4.50;99.90
5850;DHT22;2951;47.712;9.400;2022-11-30T07:15:26;4.50;99.90
5850;DHT22;2951;47.712;9.400;2022-11-30T07:17:53;4.50;99.90
5850;DHT22;2951;47.712;9.400;2022-11-30T07:20:19;4.50;99.90
5850;DHT22;2951;47.712;9.400;2022-11-30T07:22:46;4.50;99.90
5850;DHT22;2951;47.712;9.400;2022-11-30T07:25:14;4.50;99.90
5850;DHT22;2951;47.712;9.400;2022-11-30T07:28:00;4.60;99.90
5850;DHT22;2951;47.712;9.400;2022-11-30T07:30:26;4.60;99.90
5850;DHT22;2951;47.712;9.400;2022-11-30T07:32:56;4.60;99.90
5850;DHT22;2951;47.712;9.400;2022-11-30T07:35:22;4.70;99.90
5850;DHT22;2951;47.712;9.400;2022-11-30T07:37:49;4.70;99.90
5850;DHT22;2951;47.712;9.400;2022-11-30T07:40:16;4.60;99.90
5850;DHT22;2951;47.712;9.400;2022-11-30T07:42:42;4.70;99.90
5850;DHT22;2951;47.712;9.400;2022-11-30T07:45:09;4.60;99.90
5850;DHT22;2951;47.712;9.400;2022-11-30T07:47:36;4.70;99.90
5850;DHT22;2951;47.712;9.400;2022-11-30T07:50:02;4.70;99.90
5850;DHT22;2951;47.712;9.400;2022-11-30T07:52:29;4.70;99.90
5850;DHT22;2951;47.712;9.400;2022-11-30T07:54:56;4.80;99.90
5850;DHT22;2951;47.712;9.400;2022-11-30T07:57:23;4.80;99.90
5850;DHT22;2951;47.712;9.400;2022-11-30T07:59:49;4.80;99.90
5850;DHT22;2951;47.712;9.400;2022-11-30T08:02:16;4.80;99.90
5850;DHT22;2951;47.712;9.400;2022-11-30T08:04:43;4.90;99.90
5850;DHT22;2951;47.712;9.400;2022-11-30T08:07:09;4.90;99.90
5850;DHT22;2951;47.712;9.400;2022-11-30T08:09:36;4.90;99.90
5850;DHT22;2951;47.712;9.400;2022-11-30T08:12:03;4.90;99.90
5850;DHT22;2951;47.712;9.400;2022-11-30T08:14:29;4.90;99.90
5850;DHT22;2951;47.712;9.400;2022-11-30T08:16:56;4.90;99.90
5850;DHT22;2951;47.712;9.400;2022-11-30T08:19:23;5.00;99.90
5850;DHT22;2951;47.712;9.400;2022-11-30T08:21:50;5.00;99.90
5850;DHT22;2951;47.712;9.400;2022-11-30T08:24:16;5.00;99.90
5850;DHT22;2951;47.712;9.400;2022-11-30T08:26:43;5.10;99.90
5850;DHT22;2951;47.712;9.400;2022-11-30T08:29:10;5.10;99.90
5850;DHT22;2951;47.712;9.400;2022-11-30T08:31:37;5.20;99.90
5850;DHT22;2951;47.712;9.400;2022-11-30T08:34:05;5.20;99.90
5850;DHT22;2951;47.712;9.400;2022-11-30T08:36:33;5.20;99.90
5850;DHT22;2951;47.712;9.400;2022-11-30T08:39:00;5.30;99.90
5850;DHT22;2951;47.712;9.400;2022-11-30T08:41:28;5.30;99.90
5850;DHT22;2951;47.712;9.400;2022-11-30T08:43:54;5.40;99.90
5850;DHT22;2951;47.712;9.400;2022-11-30T08:46:22;5.30;99.90
5850;DHT22;2951;47.712;9.400;2022-11-30T08:49:09;5.40;99.90
5850;DHT22;2951;47.712;9.400;2022-11-30T08:51:47;5.50;99.90
5850;DHT22;2951;47.712;9.400;2022-11-30T08:54:34;5.60;99.90
5850;DHT22;2951;47.712;9.400;2022-11-30T08:57:01;5.60;99.90
5850;DHT22;2951;47.712;9.400;2022-11-30T08:59:29;5.60;99.90
5850;DHT22;2951;47.712;9.400;2022-11-30T09:01:56;5.60;99.90
5850;DHT22;2951;47.712;9.400;2022-11-30T09:04:22;5.70;99.90
5850;DHT22;2951;47.712;9.400;2022-11-30T09:06:49;5.80;99.90
5850;DHT22;2951;47.712;9.400;2022-11-30T09:09:15;5.70;99.90
5850;DHT22;2951;47.712;9.400;2022-11-30T09:11:42;5.70;99.90
5850;DHT22;2951;47.712;9.400;2022-11-30T09:14:09;5.70;99.90
5850;DHT22;2951;47.712;9.400;2022-11-30T09:16:35;5.70;99.90
5850;DHT22;2951;47.712;9.400;2022-11-30T09:19:02;5.80;99.90
5850;DHT22;2951;47.712;9.400;2022-11-30T09:21:29;5.80;99.90
5850;DHT22;2951;47.712;9.400;2022-11-30T09:23:56;5.70;99.90
5850;DHT22;2951;47.712;9.400;2022-11-30T09:26:22;5.80;99.90
5850;DHT22;2951;47.712;9.400;2022-11-30T09:28:51;5.80;99.90
5850;DHT22;2951;47.712;9.400;2022-11-30T09:31:22;5.80;99.90
5850;DHT22;2951;47.712;9.400;2022-11-30T09:33:50;5.80;99.90
5850;DHT22;2951;47.712;9.400;2022-11-30T09:36:17;5.90;99.90
5850;DHT22;2951;47.712;9.400;2022-11-30T09:38:45;5.90;99.90
5850;DHT22;2951;47.712;9.400;2022-11-30T09:41:27;5.90;99.90
5850;DHT22;2951;47.712;9.400;2022-11-30T09:46:25;5.80;99.90
5850;DHT22;2951;47.712;9.400;2022-11-30T09:51:24;5.80;99.90
5850;DHT22;2951;47.712;9.400;2022-11-30T09:53:56;5.70;99.90
5850;DHT22;2951;47.712;9.400;2022-11-30T09:56:24;5.70;99.90
5850;DHT22;2951;47.712;9.400;2022-11-30T09:58:57;5.90;99.90
5850;DHT22;2951;47.712;9.400;2022-11-30T10:01:25;5.90;99.90
5850;DHT22;2951;47.712;9.400;2022-11-30T10:03:57;5.90;99.90
5850;DHT22;2951;47.712;9.400;2022-11-30T10:24:28;5.80;99.90
5850;DHT22;2951;47.712;9.400;2022-11-30T10:26:57;5.90;99.90
5850;DHT22;2951;47.712;9.400;2022-11-30T10:29:34;5.90;99.90
5850;DHT22;2951;47.712;9.400;2022-11-30T10:32:10;5.80;99.90
5850;DHT22;2951;47.712;9.400;2022-11-30T10:34:38;5.60;99.90
5850;DHT22;2951;47.712;9.400;2022-11-30T10:37:14;5.60;99.90
5850;DHT22;2951;47.712;9.400;2022-11-30T10:39:48;5.60;99.90
5850;DHT22;2951;47.712;9.400;2022-11-30T10:42:21;5.60;99.90
5850;DHT22;2951;47.712;9.400;2022-11-30T10:45:10;5.30;99.90
5850;DHT22;2951;47.712;9.400;2022-11-30T10:47:36;5.40;99.90
5850;DHT22;2951;47.712;9.400;2022-11-30T10:50:04;5.40;99.90
5850;DHT22;2951;47.712;9.400;2022-11-30T10:52:36;5.40;99.90
5850;DHT22;2951;47.712;9.400;2022-11-30T10:55:09;5.40;99.90
5850;DHT22;2951;47.712;9.400;2022-11-30T10:57:37;5.40;99.90
5850;DHT22;2951;47.712;9.400;2022-11-30T11:00:04;5.40;99.90
5850;DHT22;2951;47.712;9.400;2022-11-30T11:02:34;5.20;99.90
5850;DHT22;2951;47.712;9.400;2022-11-30T11:05:14;5.00;99.90
5850;DHT22;2951;47.712;9.400;2022-11-30T11:10:27;4.90;99.90
5850;DHT22;2951;47.712;9.400;2022-11-30T11:12:55;4.90;99.90
5850;DHT22;2951;47.712;9.400;2022-11-30T11:15:26;5.00;99.90
5850;DHT22;2951;47.712;9.400;2022-11-30T11:18:10;5.00;99.90
5850;DHT22;2951;47.712;9.400;2022-11-30T11:20:38;5.10;99.90
5850;DHT22;2951;47.712;9.400;2022-11-30T11:23:17;5.30;99.90
5850;DHT22;2951;47.712;9.400;2022-11-30T11:25:48;5.30;99.90
5850;DHT22;2951;47.712;9.400;2022-11-30T11:28:15;5.30;99.90
5850;DHT22;2951;47.712;9.400;2022-11-30T11:30:44;5.40;99.90
5850;DHT22;2951;47.712;9.400;2022-11-30T11:35:38;5.40;99.90
5850;DHT22;2951;47.712;9.400;2022-11-30T11:43:24;5.50;99.90
5850;DHT22;2951;47.712;9.400;2022-11-30T11:45:52;5.50;99.90
5850;DHT22;2951;47.712;9.400;2022-11-30T11:48:32;5.50;99.90
5850;DHT22;2951;47.712;9.400;2022-11-30T11:51:04;5.40;99.90
5850;DHT22;2951;47.712;9.400;2022-11-30T11:56:08;5.30;99.90
5850;DHT22;2951;47.712;9.400;2022-11-30T12:01:03;5.20;99.90
5850;DHT22;2951;47.712;9.400;2022-11-30T12:04:00;5.30;99.90
5850;DHT22;2951;47.712;9.400;2022-11-30T12:06:28;5.20;99.90
5850;DHT22;2951;47.712;9.400;2022-11-30T12:08:59;5.10;99.90
5850;DHT22;2951;47.712;9.400;2022-11-30T12:11:42;5.00;99.90
5850;DHT22;2951;47.712;9.400;2022-11-30T12:14:10;5.00;99.90
5850;DHT22;2951;47.712;9.400;2022-11-30T12:32:24;4.50;99.90
5850;DHT22;2951;47.712;9.400;2022-11-30T12:39:59;4.80;99.90
5850;DHT22;2951;47.712;9.400;2022-11-30T12:42:42;4.80;99.90
5850;DHT22;2951;47.712;9.400;2022-11-30T12:45:14;4.80;99.90
5850;DHT22;2951;47.712;9.400;2022-11-30T12:50:16;4.80;99.90
5850;DHT22;2951;47.712;9.400;2022-11-30T12:52:50;5.00;99.90
5850;DHT22;2951;47.712;9.400;2022-11-30T12:55:34;4.90;99.90
5850;DHT22;2951;47.712;9.400;2022-11-30T12:58:19;4.80;99.90
5850;DHT22;2951;47.712;9.400;2022-11-30T13:03:34;4.70;99.90
5850;DHT22;2951;47.712;9.400;2022-11-30T13:06:06;4.80;99.90
5850;DHT22;2951;47.712;9.400;2022-11-30T13:08:39;4.80;99.90
5850;DHT22;2951;47.712;9.400;2022-11-30T13:11:12;4.70;99.90
5850;DHT22;2951;47.712;9.400;2022-11-30T13:13:48;4.60;99.90
5850;DHT22;2951;47.712;9.400;2022-11-30T13:16:16;4.50;99.90
5850;DHT22;2951;47.712;9.400;2022-11-30T13:18:44;4.50;99.90
5850;DHT22;2951;47.712;9.400;2022-11-30T13:24:10;4.60;99.90
5850;DHT22;2951;47.712;9.400;2022-11-30T13:31:42;4.30;99.90
5850;DHT22;2951;47.712;9.400;2022-11-30T13:34:44;4.30;99.90
5850;DHT22;2951;47.712;9.400;2022-11-30T13:39:45;4.30;99.90
5850;DHT22;2951;47.712;9.400;2022-11-30T13:42:28;4.30;99.90
5850;DHT22;2951;47.712;9.400;2022-11-30T13:45:14;4.30;99.90
5850;DHT22;2951;47.712;9.400;2022-11-30T13:47:45;4.40;99.90
5850;DHT22;2951;47.712;9.400;2022-11-30T13:58:07;4.10;99.90
5850;DHT22;2951;47.712;9.400;2022-11-30T14:05:34;4.10;99.90
5850;DHT22;2951;47.712;9.400;2022-11-30T14:10:29;4.00;99.90
5850;DHT22;2951;47.712;9.400;2022-11-30T14:13:41;4.10;99.90
5850;DHT22;2951;47.712;9.400;2022-11-30T14:23:10;4.00;99.90
5850;DHT22;2951;47.712;9.400;2022-11-30T14:25:38;4.00;99.90
5850;DHT22;2951;47.712;9.400;2022-11-30T14:28:06;4.00;99.90
5850;DHT22;2951;47.712;9.400;2022-11-30T14:30:37;4.00;99.90
5850;DHT22;2951;47.712;9.400;2022-11-30T14:33:09;4.10;99.90
5850;DHT22;2951;47.712;9.400;2022-11-30T14:35:41;3.90;99.90
5850;DHT22;2951;47.712;9.400;2022-11-30T14:38:18;3.90;99.90
5850;DHT22;2951;47.712;9.400;2022-11-30T14:40:50;3.90;99.90
5850;DHT22;2951;47.712;9.400;2022-11-30T14:43:17;4.00;99.90
5850;DHT22;2951;47.712;9.400;2022-11-30T14:45:57;4.00;99.90
5850;DHT22;2951;47.712;9.400;2022-11-30T14:48:29;3.90;99.90
5850;DHT22;2951;47.712;9.400;2022-11-30T14:51:00;3.80;99.90
5850;DHT22;2951;47.712;9.400;2022-11-30T14:53:37;3.80;99.90
5850;DHT22;2951;47.712;9.400;2022-11-30T14:56:21;3.70;99.90
5850;DHT22;2951;47.712;9.400;2022-11-30T15:01:31;3.80;99.90
5850;DHT22;2951;47.712;9.400;2022-11-30T15:04:05;3.80;99.90
5850;DHT22;2951;47.712;9.400;2022-11-30T15:06:32;3.70;99.90
5850;DHT22;2951;47.712;9.400;2022-11-30T15:08:59;3.80;99.90
5850;DHT22;2951;47.712;9.400;2022-11-30T15:11:26;3.80;99.90
5850;DHT22;2951;47.712;9.400;2022-11-30T15:13:54;3.80;99.90
5850;DHT22;2951;47.712;9.400;2022-11-30T15:16:26;3.80;99.90
5850;DHT22;2951;47.712;9.400;2022-11-30T15:18:53;3.80;99.90
5850;DHT22;2951;47.712;9.400;2022-11-30T15:21:21;3.80;99.90
5850;DHT22;2951;47.712;9.400;2022-11-30T15:23:59;3.80;99.90
5850;DHT22;2951;47.712;9.400;2022-11-30T15:26:36;3.80;99.90
5850;DHT22;2951;47.712;9.400;2022-11-30T15:29:06;3.80;99.90
5850;DHT22;2951;47.712;9.400;2022-11-30T15:31:38;3.80;99.90
5850;DHT22;2951;47.712;9.400;2022-11-30T15:34:14;3.80;99.90
5850;DHT22;2951;47.712;9.400;2022-11-30T15:36:41;3.90;99.90
5850;DHT22;2951;47.712;9.400;2022-11-30T15:39:13;3.80;99.90
5850;DHT22;2951;47.712;9.400;2022-11-30T15:41:41;3.80;99.90
5850;DHT22;2951;47.712;9.400;2022-11-30T15:44:16;3.90;99.90
5850;DHT22;2951;47.712;9.400;2022-11-30T15:46:52;3.90;99.90
5850;DHT22;2951;47.712;9.400;2022-11-30T15:49:23;3.90;99.90
5850;DHT22;2951;47.712;9.400;2022-11-30T15:52:01;3.80;99.90
5850;DHT22;2951;47.712;9.400;2022-11-30T15:57:09;3.80;99.90
5850;DHT22;2951;47.712;9.400;2022-11-30T15:59:36;3.80;99.90
5850;DHT22;2951;47.712;9.400;2022-11-30T16:02:02;3.80;99.90
5850;DHT22;2951;47.712;9.400;2022-11-30T16:05:25;3.80;99.90
5850;DHT22;2951;47.712;9.400;2022-11-30T16:07:28;3.80;99.90
5850;DHT22;2951;47.712;9.400;2022-11-30T16:12:30;3.80;99.90
5850;DHT22;2951;47.712;9.400;2022-11-30T16:14:57;3.80;99.90
5850;DHT22;2951;47.712;9.400;2022-11-30T16:17:24;3.80;99.90
5850;DHT22;2951;47.712;9.400;2022-11-30T16:19:52;3.90;99.90
5850;DHT22;2951;47.712;9.400;2022-11-30T16:22:19;3.90;99.90
5850;DHT22;2951;47.712;9.400;2022-11-30T16:24:46;4.00;99.90
5850;DHT22;2951;47.712;9.400;2022-11-30T16:27:16;3.90;99.90
5850;DHT22;2951;47.712;9.400;2022-11-30T16:29:44;3.90;99.90
5850;DHT22;2951;47.712;9.400;2022-11-30T16:32:16;3.90;99.90
5850;DHT22;2951;47.712;9.400;2022-11-30T16:34:43;3.90;99.90
5850;DHT22;2951;47.712;9.400;2022-11-30T16:37:10;3.90;99.90
5850;DHT22;2951;47.712;9.400;2022-11-30T16:39:36;3.90;99.90
5850;DHT22;2951;47.712;9.400;2022-11-30T16:42:03;3.80;99.90
5850;DHT22;2951;47.712;9.400;2022-11-30T16:44:30;3.80;99.90
5850;DHT22;2951;47.712;9.400;2022-11-30T16:46:56;3.80;99.90
5850;DHT22;2951;47.712;9.400;2022-11-30T16:49:23;3.80;99.90
5850;DHT22;2951;47.712;9.400;2022-11-30T16:51:49;3.80;99.90
5850;DHT22;2951;47.712;9.400;2022-11-30T16:54:16;3.80;99.90
5850;DHT22;2951;47.712;9.400;2022-11-30T16:56:43;3.80;99.90
5850;DHT22;2951;47.712;9.400;2022-11-30T16:59:09;3.80;99.90
5850;DHT22;2951;47.712;9.400;2022-11-30T17:01:43;3.80;99.90
5850;DHT22;2951;47.712;9.400;2022-11-30T17:06:37;3.80;99.90
5850;DHT22;2951;47.712;9.400;2022-11-30T17:09:04;3.80;99.90
5850;DHT22;2951;47.712;9.400;2022-11-30T17:11:32;3.80;99.90
5850;DHT22;2951;47.712;9.400;2022-11-30T17:13:59;3.80;99.90
5850;DHT22;2951;47.712;9.400;2022-11-30T17:16:26;3.80;99.90
5850;DHT22;2951;47.712;9.400;2022-11-30T17:18:53;3.80;99.90
5850;DHT22;2951;47.712;9.400;2022-11-30T17:21:24;3.80;99.90
5850;DHT22;2951;47.712;9.400;2022-11-30T17:23:52;3.80;99.90
5850;DHT22;2951;47.712;9.400;2022-11-30T17:26:18;3.70;99.90
5850;DHT22;2951;47.712;9.400;2022-11-30T17:28:45;3.80;99.90
5850;DHT22;2951;47.712;9.400;2022-11-30T17:31:12;3.70;99.90
5850;DHT22;2951;47.712;9.400;2022-11-30T17:33:39;3.70;99.90
5850;DHT22;2951;47.712;9.400;2022-11-30T17:36:12;3.80;99.90
5850;DHT22;2951;47.712;9.400;2022-11-30T17:38:39;3.70;99.90
5850;DHT22;2951;47.712;9.400;2022-11-30T17:41:08;3.70;99.90
5850;DHT22;2951;47.712;9.400;2022-11-30T17:43:38;3.70;99.90
5850;DHT22;2951;47.712;9.400;2022-11-30T17:46:09;3.70;99.90
5850;DHT22;2951;47.712;9.400;2022-11-30T17:48:36;3.70;99.90
5850;DHT22;2951;47.712;9.400;2022-11-30T17:51:02;3.70;99.90
5850;DHT22;2951;47.712;9.400;2022-11-30T17:53:29;3.70;99.90
5850;DHT22;2951;47.712;9.400;2022-11-30T17:56:09;3.70;99.90
5850;DHT22;2951;47.712;9.400;2022-11-30T17:58:36;3.60;99.90
5850;DHT22;2951;47.712;9.400;2022-11-30T18:01:19;3.60;99.90
5850;DHT22;2951;47.712;9.400;2022-11-30T18:03:46;3.60;99.90
5850;DHT22;2951;47.712;9.400;2022-11-30T18:06:12;3.60;99.90
5850;DHT22;2951;47.712;9.400;2022-11-30T18:08:39;3.60;99.90
5850;DHT22;2951;47.712;9.400;2022-11-30T18:11:07;3.60;99.90
5850;DHT22;2951;47.712;9.400;2022-11-30T18:13:34;3.60;99.90
5850;DHT22;2951;47.712;9.400;2022-11-30T18:16:11;3.60;99.90
5850;DHT22;2951;47.712;9.400;2022-11-30T18:18:39;3.50;99.90
5850;DHT22;2951;47.712;9.400;2022-11-30T18:21:12;3.50;99.90
5850;DHT22;2951;47.712;9.400;2022-11-30T18:23:38;3.50;99.90
5850;DHT22;2951;47.712;9.400;2022-11-30T18:26:06;3.50;99.90